createdAt,value
2022-11-25T00:01:35.211Z,5.89
2022-11-25T00:04:03.280Z,5.81
2022-11-25T00:06:33.786Z,5.75
2022-11-25T00:09:07.839Z,5.90
2022-11-25T00:11:38.258Z,5.47
2022-11-25T00:14:07.049Z,5.67
2022-11-25T00:16:35.108Z,5.49
2022-11-25T00:19:03.336Z,5.56
2022-11-25T00:21:34.028Z,6.04
2022-11-25T00:24:05.087Z,6.08
2022-11-25T00:26:35.322Z,6.02
2022-11-25T00:29:07.722Z,6.13
2022-11-25T00:31:39.367Z,6.48
2022-11-25T00:34:14.002Z,6.92
2022-11-25T00:36:42.063Z,6.51
2022-11-25T00:39:15.470Z,6.28
2022-11-25T00:42:03.416Z,6.37
2022-11-25T00:44:37.182Z,6.20
2022-11-25T00:47:16.849Z,6.48
2022-11-25T00:49:47.370Z,6.39
2022-11-25T00:52:19.693Z,6.33
2022-11-25T00:54:50.281Z,6.48
2022-11-25T00:57:21.633Z,6.58
2022-11-25T00:59:50.083Z,6.67
2022-11-25T01:02:19.065Z,7.75
2022-11-25T01:04:47.641Z,7.10
2022-11-25T01:07:18.731Z,7.14
2022-11-25T01:09:47.934Z,7.25
2022-11-25T01:12:16.283Z,7.36
2022-11-25T01:14:44.389Z,6.96
2022-11-25T01:17:15.256Z,7.20
2022-11-25T01:19:43.177Z,7.26
2022-11-25T01:22:11.091Z,7.54
2022-11-25T01:24:39.205Z,7.95
2022-11-25T01:27:08.169Z,8.10
2022-11-25T01:29:36.266Z,7.82
2022-11-25T01:32:05.281Z,8.41
2022-11-25T01:34:34.518Z,8.68
2022-11-25T01:37:03.110Z,8.63
2022-11-25T01:39:33.081Z,8.48
2022-11-25T01:42:02.439Z,8.52
2022-11-25T01:44:32.467Z,8.83
2022-11-25T01:47:23.672Z,9.09
2022-11-25T01:50:03.662Z,9.16
2022-11-25T01:52:39.495Z,8.25
2022-11-25T01:55:17.593Z,7.98
2022-11-25T01:57:54.301Z,8.24
2022-11-25T02:00:25.846Z,8.99
2022-11-25T02:02:56.464Z,8.42
2022-11-25T02:05:42.838Z,8.24
2022-11-25T02:08:10.773Z,8.50
2022-11-25T02:10:39.672Z,8.55
2022-11-25T02:13:08.451Z,9.20
2022-11-25T02:15:37.544Z,9.07
2022-11-25T02:18:06.716Z,8.35
2022-11-25T02:20:35.773Z,8.52
2022-11-25T02:23:14.864Z,8.50
2022-11-25T02:25:46.238Z,8.54
2022-11-25T02:28:42.399Z,8.46
2022-11-25T02:31:10.692Z,8.46
2022-11-25T02:33:38.846Z,8.93
2022-11-25T02:36:13.232Z,9.07
2022-11-25T02:38:44.443Z,8.79
2022-11-25T02:41:17.701Z,8.34
2022-11-25T02:43:49.093Z,8.39
2022-11-25T02:46:23.599Z,8.09
2022-11-25T02:49:08.928Z,8.32
2022-11-25T02:51:39.987Z,8.22
2022-11-25T02:54:10.273Z,7.83
2022-11-25T02:56:38.803Z,7.92
2022-11-25T02:59:06.940Z,8.41
2022-11-25T03:01:35.621Z,8.17
2022-11-25T03:04:06.775Z,8.54
2022-11-25T03:06:34.749Z,8.32
2022-11-25T03:09:02.613Z,8.64
2022-11-25T03:12:03.769Z,8.62
2022-11-25T03:14:31.982Z,8.50
2022-11-25T03:17:00.016Z,8.79
2022-11-25T03:19:29.119Z,8.87
2022-11-25T03:21:57.096Z,8.43
2022-11-25T03:24:24.987Z,8.42
2022-11-25T03:26:53.295Z,8.48
2022-11-25T03:29:21.177Z,8.45
2022-11-25T03:31:49.134Z,8.19
2022-11-25T03:34:17.137Z,8.29
2022-11-25T03:36:45.248Z,9.33
2022-11-25T03:39:13.200Z,8.98
2022-11-25T03:41:41.226Z,9.17
2022-11-25T03:44:09.197Z,9.44
2022-11-25T03:46:37.700Z,9.00
2022-11-25T03:49:07.788Z,10.49
2022-11-25T03:51:35.951Z,10.12
2022-11-25T03:54:03.934Z,9.73
2022-11-25T03:56:41.537Z,9.38
2022-11-25T03:59:09.455Z,9.21
2022-11-25T04:01:44.202Z,8.60
2022-11-25T04:04:12.676Z,9.53
2022-11-25T04:06:40.623Z,9.19
2022-11-25T04:09:12.017Z,10.65
2022-11-25T04:11:59.334Z,11.60
2022-11-25T04:14:31.484Z,11.07
2022-11-25T04:17:00.665Z,11.40
2022-11-25T04:19:28.913Z,11.14
2022-11-25T04:21:59.757Z,11.37
2022-11-25T04:24:29.185Z,11.21
2022-11-25T04:26:57.665Z,11.46
2022-11-25T04:29:25.747Z,11.52
2022-11-25T04:31:54.176Z,11.73
2022-11-25T04:34:22.313Z,11.22
2022-11-25T04:36:52.689Z,17.13
2022-11-25T04:39:20.772Z,23.76
2022-11-25T04:42:12.511Z,16.75
2022-11-25T04:44:40.765Z,14.30
2022-11-25T04:47:08.816Z,12.98
2022-11-25T04:49:37.385Z,12.62
2022-11-25T04:52:05.330Z,13.05
2022-11-25T04:54:35.612Z,13.13
2022-11-25T04:57:03.877Z,13.38
2022-11-25T04:59:40.790Z,13.47
2022-11-25T05:02:22.932Z,14.22
2022-11-25T05:05:01.687Z,14.50
2022-11-25T05:07:30.202Z,14.20
2022-11-25T05:09:58.634Z,14.43
2022-11-25T05:12:48.389Z,14.35
2022-11-25T05:15:19.168Z,14.66
2022-11-25T05:17:48.869Z,14.58
2022-11-25T05:20:22.177Z,15.19
2022-11-25T05:22:50.095Z,14.87
2022-11-25T05:25:24.573Z,14.86
2022-11-25T05:28:12.699Z,15.37
2022-11-25T05:30:41.000Z,17.15
2022-11-25T05:33:09.016Z,16.37
2022-11-25T05:35:36.883Z,16.86
2022-11-25T05:38:04.980Z,16.93
2022-11-25T05:40:34.173Z,18.17
2022-11-25T05:43:10.957Z,16.62
2022-11-25T05:45:40.833Z,16.42
2022-11-25T05:48:10.613Z,16.96
2022-11-25T05:50:39.741Z,16.58
2022-11-25T05:53:19.805Z,15.81
2022-11-25T05:56:01.532Z,15.78
2022-11-25T05:58:55.377Z,16.47
2022-11-25T06:01:28.021Z,17.29
2022-11-25T06:03:55.904Z,17.57
2022-11-25T06:06:23.987Z,17.16
2022-11-25T06:08:51.914Z,17.21
2022-11-25T06:11:19.948Z,17.73
2022-11-25T06:13:47.818Z,17.77
2022-11-25T06:16:19.895Z,19.54
2022-11-25T06:18:51.955Z,19.75
2022-11-25T06:21:20.253Z,20.02
2022-11-25T06:23:48.539Z,19.29
2022-11-25T06:26:20.972Z,21.58
2022-11-25T06:28:50.476Z,23.65
2022-11-25T06:31:21.315Z,24.47
2022-11-25T06:33:56.472Z,28.34
2022-11-25T06:36:26.067Z,36.06
2022-11-25T06:38:54.498Z,31.84
2022-11-25T06:41:22.855Z,25.72
2022-11-25T06:43:51.090Z,26.00
2022-11-25T06:46:24.959Z,25.70
2022-11-25T06:48:54.419Z,24.81
2022-11-25T06:51:24.489Z,24.74
2022-11-25T06:53:52.761Z,26.26
2022-11-25T06:56:24.420Z,26.83
2022-11-25T06:58:52.498Z,27.47
2022-11-25T07:01:28.428Z,29.63
2022-11-25T07:04:03.307Z,28.93
2022-11-25T07:06:33.416Z,29.36
2022-11-25T07:09:02.051Z,30.25
2022-11-25T07:11:33.366Z,31.33
2022-11-25T07:14:07.073Z,30.45
2022-11-25T07:16:35.151Z,29.41
2022-11-25T07:19:03.583Z,28.55
2022-11-25T07:21:33.196Z,29.07
2022-11-25T07:24:03.627Z,29.36
2022-11-25T07:26:34.473Z,29.39
2022-11-25T07:29:06.367Z,29.39
2022-11-25T07:31:44.383Z,27.35
2022-11-25T07:34:17.545Z,28.18
2022-11-25T07:36:47.195Z,28.15
2022-11-25T07:39:21.103Z,27.82
2022-11-25T07:41:50.051Z,27.54
2022-11-25T07:44:18.493Z,28.15
2022-11-25T07:46:53.548Z,27.99
2022-11-25T07:49:25.442Z,27.40
2022-11-25T07:51:56.789Z,27.44
2022-11-25T07:54:24.905Z,27.29
2022-11-25T07:56:53.613Z,27.13
2022-11-25T07:59:22.932Z,27.15
2022-11-25T08:01:53.238Z,27.45
2022-11-25T08:04:22.009Z,28.40
2022-11-25T08:06:53.174Z,28.72
2022-11-25T08:09:23.888Z,28.02
2022-11-25T08:11:52.730Z,28.78
2022-11-25T08:14:21.237Z,29.25
2022-11-25T08:16:49.171Z,29.07
2022-11-25T08:19:18.434Z,29.61
2022-11-25T08:21:49.168Z,30.73
2022-11-25T08:24:20.092Z,30.79
2022-11-25T08:26:49.104Z,32.19
2022-11-25T08:29:19.082Z,33.59
2022-11-25T08:31:47.028Z,36.17
2022-11-25T08:34:23.912Z,43.82
2022-11-25T08:36:57.486Z,47.28
2022-11-25T08:42:13.399Z,40.69
2022-11-25T08:44:41.386Z,42.08
2022-11-25T08:47:10.073Z,43.96
2022-11-25T08:49:41.239Z,43.43
2022-11-25T08:52:10.364Z,46.07
2022-11-25T08:54:39.293Z,47.90
2022-11-25T08:57:07.148Z,49.00
2022-11-25T08:59:35.868Z,45.16
2022-11-25T09:02:04.471Z,44.59
2022-11-25T09:04:32.507Z,46.13
2022-11-25T09:07:00.741Z,44.67
2022-11-25T09:09:28.639Z,47.70
2022-11-25T09:11:56.806Z,50.16
2022-11-25T09:14:24.760Z,50.63
2022-11-25T09:16:52.690Z,51.93
2022-11-25T09:19:21.071Z,50.54
2022-11-25T09:21:49.301Z,50.44
2022-11-25T09:24:17.225Z,49.45
2022-11-25T09:26:45.237Z,46.56
2022-11-25T09:29:14.261Z,41.10
2022-11-25T09:31:42.234Z,37.83
2022-11-25T09:34:10.516Z,37.68
2022-11-25T09:36:38.624Z,36.59
2022-11-25T09:39:06.588Z,35.08
2022-11-25T09:42:17.620Z,34.42
2022-11-25T09:45:36.681Z,33.86
2022-11-25T09:48:14.670Z,34.94
2022-11-25T09:51:17.318Z,34.11
2022-11-25T09:53:55.162Z,34.32
2022-11-25T09:56:34.801Z,34.68
2022-11-25T09:59:28.571Z,34.41
2022-11-25T10:02:03.301Z,36.79
2022-11-25T10:04:51.721Z,37.27
2022-11-25T10:07:33.418Z,37.27
2022-11-25T10:10:06.436Z,36.07
2022-11-25T10:12:40.025Z,38.21
2022-11-25T10:15:19.017Z,37.29
2022-11-25T10:17:56.232Z,39.09
2022-11-25T10:20:39.290Z,43.79
2022-11-25T10:23:36.333Z,47.13
2022-11-25T10:26:15.745Z,46.28
2022-11-25T10:28:55.851Z,45.75
2022-11-25T10:31:32.878Z,42.90
2022-11-25T10:34:02.794Z,42.37
2022-11-25T10:36:37.684Z,41.96
2022-11-25T10:39:14.477Z,41.50
2022-11-25T10:42:07.194Z,44.33
2022-11-25T10:44:38.195Z,44.28
2022-11-25T10:47:35.384Z,45.84
2022-11-25T10:50:33.878Z,45.88
2022-11-25T10:53:17.774Z,46.35
2022-11-25T10:56:04.544Z,45.61
2022-11-25T10:58:37.994Z,46.74
2022-11-25T11:01:14.495Z,46.21
2022-11-25T11:03:47.593Z,46.52
2022-11-25T11:06:31.837Z,48.88
2022-11-25T11:08:59.881Z,53.63
2022-11-25T11:11:28.290Z,54.92
2022-11-25T11:14:08.327Z,63.33
2022-11-25T11:16:39.699Z,63.53
2022-11-25T11:19:21.605Z,64.01
2022-11-25T11:21:51.453Z,65.81
2022-11-25T11:24:26.793Z,65.99
2022-11-25T11:27:19.993Z,66.41
2022-11-25T11:29:49.090Z,68.08
2022-11-25T11:32:24.050Z,67.41
2022-11-25T11:35:15.495Z,68.04
2022-11-25T11:37:45.711Z,70.01
2022-11-25T11:40:26.080Z,72.02
2022-11-25T11:43:05.748Z,70.72
2022-11-25T11:45:39.498Z,71.63
2022-11-25T11:48:19.554Z,68.92
2022-11-25T11:51:09.516Z,66.61
2022-11-25T11:53:51.999Z,65.73
2022-11-25T11:56:34.796Z,61.35
2022-11-25T11:59:16.112Z,60.16
2022-11-25T12:05:19.120Z,63.49
2022-11-25T12:08:06.937Z,58.54
2022-11-25T12:10:59.469Z,60.49
2022-11-25T12:13:43.593Z,66.47
2022-11-25T12:16:31.752Z,56.03
2022-11-25T12:19:20.638Z,48.65
2022-11-25T12:21:59.550Z,48.96
2022-11-25T12:24:37.228Z,48.89
2022-11-25T12:27:12.963Z,47.51
2022-11-25T12:30:12.639Z,44.92
2022-11-25T12:32:46.835Z,44.21
2022-11-25T12:35:36.882Z,41.80
2022-11-25T12:38:04.883Z,42.56
2022-11-25T12:40:51.234Z,42.06
2022-11-25T12:43:47.400Z,41.63
2022-11-25T12:46:29.585Z,40.35
2022-11-25T12:48:58.933Z,37.65
2022-11-25T12:51:57.814Z,38.31
2022-11-25T12:54:47.466Z,38.84
2022-11-25T12:57:15.326Z,37.72
2022-11-25T13:00:39.118Z,36.91
2022-11-25T13:03:14.048Z,39.25
2022-11-25T13:05:55.221Z,39.50
2022-11-25T13:08:28.721Z,38.90
2022-11-25T13:11:16.104Z,39.11
2022-11-25T13:14:22.349Z,38.69
2022-11-25T13:16:51.946Z,36.39
2022-11-25T13:19:20.763Z,33.91
2022-11-25T13:22:04.443Z,31.73
2022-11-25T13:24:38.596Z,32.59
2022-11-25T13:27:52.570Z,31.74
2022-11-25T13:30:32.756Z,32.42
2022-11-25T13:33:09.717Z,31.22
2022-11-25T13:35:43.762Z,31.98
2022-11-25T13:38:35.968Z,31.56
2022-11-25T13:41:25.835Z,30.10
2022-11-25T13:43:53.717Z,30.28
2022-11-25T13:46:38.570Z,30.44
2022-11-25T13:49:27.078Z,31.59
2022-11-25T13:51:58.432Z,31.30
2022-11-25T13:54:50.656Z,31.98
2022-11-25T13:57:28.918Z,33.09
2022-11-25T14:00:00.144Z,34.10
2022-11-25T14:02:28.190Z,32.64
2022-11-25T14:04:58.874Z,31.67
2022-11-25T14:08:08.753Z,31.06
2022-11-25T14:11:09.353Z,32.05
2022-11-25T14:13:46.204Z,30.61
2022-11-25T14:16:44.049Z,28.96
2022-11-25T14:22:18.116Z,29.84
2022-11-25T14:24:55.605Z,29.61
2022-11-25T14:27:29.667Z,28.80
2022-11-25T14:30:10.628Z,28.76
2022-11-25T14:32:47.634Z,27.18
2022-11-25T14:35:22.004Z,26.97
2022-11-25T14:37:50.680Z,26.47
2022-11-25T14:40:32.281Z,27.09
2022-11-25T14:43:08.263Z,25.38
2022-11-25T14:45:36.544Z,25.65
2022-11-25T14:48:17.582Z,27.54
2022-11-25T14:51:00.314Z,28.50
2022-11-25T14:53:29.681Z,25.80
2022-11-25T14:56:00.303Z,26.10
2022-11-25T14:58:29.409Z,25.94
2022-11-25T15:00:57.302Z,26.05
2022-11-25T15:03:25.481Z,26.61
2022-11-25T15:06:05.203Z,27.49
2022-11-25T15:08:42.330Z,26.53
2022-11-25T15:11:19.878Z,26.97
2022-11-25T15:13:53.052Z,27.91
2022-11-25T15:16:24.157Z,27.94
2022-11-25T15:18:54.929Z,27.83
2022-11-25T15:21:33.380Z,30.02
2022-11-25T15:24:02.807Z,32.95
2022-11-25T15:26:34.556Z,29.40
2022-11-25T15:29:10.603Z,29.14
2022-11-25T15:31:41.691Z,29.34
2022-11-25T15:34:14.808Z,29.00
2022-11-25T15:36:42.887Z,29.53
2022-11-25T15:39:19.847Z,29.32
2022-11-25T15:41:53.798Z,30.39
2022-11-25T15:44:28.449Z,30.26
2022-11-25T15:47:02.065Z,30.37
2022-11-25T15:49:30.182Z,30.86
2022-11-25T15:52:11.784Z,32.43
2022-11-25T15:54:43.803Z,42.08
2022-11-25T15:57:28.131Z,42.64
2022-11-25T15:59:56.045Z,35.66
2022-11-25T16:02:35.069Z,36.38
2022-11-25T16:05:33.068Z,33.61
2022-11-25T16:08:31.170Z,31.40
2022-11-25T16:11:10.544Z,31.29
2022-11-25T16:13:39.817Z,33.42
2022-11-25T16:16:07.786Z,32.42
2022-11-25T16:18:42.507Z,32.83
2022-11-25T16:21:24.068Z,32.97
2022-11-25T16:23:57.754Z,32.74
2022-11-25T16:26:31.849Z,32.80
2022-11-25T16:29:02.252Z,33.37
2022-11-25T16:31:30.211Z,36.01
2022-11-25T16:34:13.809Z,37.28
2022-11-25T16:36:42.477Z,36.89
2022-11-25T16:39:10.436Z,34.92
2022-11-25T16:41:39.069Z,33.08
2022-11-25T16:44:23.789Z,32.50
2022-11-25T16:46:52.062Z,30.86
2022-11-25T16:49:21.319Z,32.00
2022-11-25T16:51:53.199Z,30.44
2022-11-25T16:54:22.868Z,28.87
2022-11-25T16:56:53.940Z,29.85
2022-11-25T16:59:38.086Z,30.92
2022-11-25T17:02:18.925Z,31.91
2022-11-25T17:04:47.897Z,31.80
2022-11-25T17:07:32.587Z,32.10
2022-11-25T17:10:01.331Z,30.63
2022-11-25T17:12:32.812Z,30.81
2022-11-25T17:15:04.526Z,30.99
2022-11-25T17:17:32.992Z,31.54
2022-11-25T17:20:01.032Z,31.55
2022-11-25T17:22:33.366Z,31.05
2022-11-25T17:25:02.650Z,32.25
2022-11-25T17:27:32.698Z,31.82
2022-11-25T17:30:04.118Z,32.13
2022-11-25T17:32:33.290Z,32.41
2022-11-25T17:35:01.289Z,32.42
2022-11-25T17:37:31.157Z,31.49
2022-11-25T17:39:59.158Z,32.55
2022-11-25T17:42:30.909Z,31.48
2022-11-25T17:45:00.204Z,32.40
2022-11-25T17:47:28.448Z,33.20
2022-11-25T17:49:57.924Z,33.52
2022-11-25T17:52:25.831Z,34.37
2022-11-25T17:54:53.777Z,34.00
2022-11-25T17:57:22.651Z,34.12
2022-11-25T17:59:50.606Z,33.97
2022-11-25T18:02:20.630Z,35.05
2022-11-25T18:04:48.989Z,34.89
2022-11-25T18:07:17.845Z,35.33
2022-11-25T18:09:46.369Z,36.43
2022-11-25T18:12:25.400Z,34.74
2022-11-25T18:14:53.800Z,36.39
2022-11-25T18:17:21.741Z,37.43
2022-11-25T18:19:54.494Z,37.13
2022-11-25T18:22:24.158Z,36.87
2022-11-25T18:24:53.726Z,36.03
2022-11-25T18:27:27.912Z,37.61
2022-11-25T18:29:57.291Z,36.51
2022-11-25T18:32:25.992Z,34.92
2022-11-25T18:34:53.995Z,35.54
2022-11-25T18:37:22.381Z,36.22
2022-11-25T18:39:50.387Z,35.81
2022-11-25T18:42:27.154Z,36.17
2022-11-25T18:44:55.955Z,35.96
2022-11-25T18:47:24.262Z,37.48
2022-11-25T18:49:55.889Z,36.77
2022-11-25T18:52:25.069Z,37.13
2022-11-25T18:54:53.156Z,37.15
2022-11-25T18:57:21.222Z,36.96
2022-11-25T19:00:10.300Z,36.99
2022-11-25T19:02:37.662Z,37.62
2022-11-25T19:05:35.040Z,36.30
2022-11-25T19:08:03.009Z,37.76
2022-11-25T19:10:36.239Z,37.84
2022-11-25T19:13:11.861Z,37.59
2022-11-25T19:15:40.186Z,37.53
2022-11-25T19:18:14.293Z,37.82
2022-11-25T19:20:42.331Z,37.40
2022-11-25T19:23:21.246Z,38.27
2022-11-25T19:25:49.645Z,38.34
2022-11-25T19:28:18.080Z,36.18
2022-11-25T19:30:47.591Z,37.22
2022-11-25T19:33:25.224Z,36.02
2022-11-25T19:35:53.329Z,35.46
2022-11-25T19:38:25.913Z,34.62
2022-11-25T19:40:55.584Z,33.41
2022-11-25T19:43:26.994Z,34.59
2022-11-25T19:45:57.317Z,34.54
2022-11-25T19:48:28.350Z,35.45
2022-11-25T19:51:01.974Z,35.99
2022-11-25T19:53:33.828Z,37.40
2022-11-25T19:56:04.598Z,38.48
2022-11-25T19:58:33.295Z,38.47
2022-11-25T20:01:06.690Z,36.44
2022-11-25T20:03:35.153Z,36.37
2022-11-25T20:06:04.768Z,36.69
2022-11-25T20:08:33.824Z,37.91
2022-11-25T20:11:01.770Z,38.16
2022-11-25T20:13:29.790Z,37.66
2022-11-25T20:15:58.825Z,36.59
2022-11-25T20:18:27.833Z,36.06
2022-11-25T20:21:03.688Z,36.14
2022-11-25T20:23:43.770Z,34.80
2022-11-25T20:26:33.807Z,35.32
2022-11-25T20:29:02.935Z,34.17
2022-11-25T20:31:31.106Z,35.58
2022-11-25T20:34:00.268Z,34.99
2022-11-25T20:36:32.720Z,34.17
2022-11-25T20:39:01.965Z,33.27
2022-11-25T20:41:30.704Z,33.94
2022-11-25T20:43:59.734Z,34.91
2022-11-25T20:46:30.716Z,34.12
2022-11-25T20:49:01.886Z,32.82
2022-11-25T20:51:30.329Z,33.68
2022-11-25T20:54:02.802Z,34.66
2022-11-25T20:56:30.807Z,34.21
2022-11-25T20:58:58.779Z,34.22
2022-11-25T21:01:27.003Z,34.64
2022-11-25T21:03:54.994Z,33.07
2022-11-25T21:06:29.557Z,33.98
2022-11-25T21:09:01.386Z,33.28
2022-11-25T21:11:33.005Z,32.40
2022-11-25T21:14:00.979Z,32.33
2022-11-25T21:16:29.292Z,31.97
2022-11-25T21:18:57.195Z,33.31
2022-11-25T21:21:32.197Z,32.66
2022-11-25T21:24:17.474Z,32.39
2022-11-25T21:26:45.397Z,32.79
2022-11-25T21:29:16.595Z,32.68
2022-11-25T21:31:45.211Z,33.71
2022-11-25T21:34:14.785Z,32.84
2022-11-25T21:36:45.934Z,32.60
2022-11-25T21:39:25.601Z,33.06
2022-11-25T21:41:54.944Z,32.80
2022-11-25T21:44:32.920Z,32.23
2022-11-25T21:47:00.945Z,32.05
2022-11-25T21:49:29.723Z,32.22
2022-11-25T21:51:57.569Z,32.14
2022-11-25T21:54:25.416Z,31.34
2022-11-25T21:56:53.500Z,31.93
2022-11-25T21:59:21.426Z,31.78
2022-11-25T22:01:49.295Z,31.08
2022-11-25T22:04:19.695Z,30.87
2022-11-25T22:06:48.351Z,31.48
2022-11-25T22:09:16.362Z,30.74
2022-11-25T22:11:47.650Z,30.03
2022-11-25T22:14:34.694Z,28.70
2022-11-25T22:17:07.052Z,28.10
2022-11-25T22:19:35.296Z,28.83
2022-11-25T22:22:03.303Z,28.50
2022-11-25T22:24:33.509Z,28.47
2022-11-25T22:27:03.421Z,28.84
2022-11-25T22:29:34.974Z,29.44
2022-11-25T22:32:07.023Z,29.26
2022-11-25T22:34:38.046Z,30.08
2022-11-25T22:37:16.451Z,29.12
2022-11-25T22:39:45.001Z,29.78
2022-11-25T22:42:34.697Z,27.73
2022-11-25T22:45:05.080Z,29.62
2022-11-25T22:47:45.473Z,30.04
2022-11-25T22:50:23.866Z,29.72
2022-11-25T22:52:52.947Z,29.74
2022-11-25T22:55:29.633Z,30.66
2022-11-25T22:58:00.095Z,29.49
2022-11-25T23:00:32.067Z,31.25
2022-11-25T23:03:02.054Z,30.87
2022-11-25T23:05:33.824Z,29.99
2022-11-25T23:08:11.318Z,30.38
2022-11-25T23:10:39.485Z,31.07
2022-11-25T23:13:07.466Z,31.08
2022-11-25T23:15:36.718Z,31.70
2022-11-25T23:18:12.324Z,31.84
2022-11-25T23:20:40.614Z,31.61
2022-11-25T23:23:17.464Z,30.39
2022-11-25T23:25:46.431Z,29.59
2022-11-25T23:28:14.404Z,29.30
2022-11-25T23:30:54.765Z,29.55
2022-11-25T23:33:28.405Z,29.05
2022-11-25T23:35:57.383Z,29.85
2022-11-25T23:38:28.121Z,30.36
2022-11-25T23:40:56.647Z,29.41
2022-11-25T23:43:24.569Z,30.68
2022-11-25T23:45:55.533Z,30.09
2022-11-25T23:48:28.257Z,30.80
2022-11-25T23:50:58.524Z,29.55
2022-11-25T23:53:30.766Z,29.47
2022-11-25T23:55:59.128Z,29.43
2022-11-25T23:58:27.019Z,29.01
